Terminal Aerodrome Forecast
Issued by NWS Chicago, IL

Home | Current Version | Previous Version | Graphics & Text | Print | Product List | Glossary On
Versions: 1 2 3 4 5 6 7 8 9 10 11 12 13 14 15 16 17 18 19 20 21 22 23 24 25 26 27 28 29 30 31 32 33 34
000
FTUS43 KLOT 262211 AAC
TAFRFD
TAF AMD
KRFD 262211Z 2622/2718 12005KT P6SM SCT050 BKN100 OVC250
     FM270700 VRB03KT 5SM BR SCT040 SCT120
     FM271500 15008KT P6SM SCT100=

USA.gov is the U.S. government's official web portal to all federal, state and local government web resources and services.